createdAt,value
2022-12-24T00:06:37.203Z,0
2022-12-24T00:16:14.991Z,0
2022-12-24T00:25:52.426Z,0
2022-12-24T00:35:29.999Z,0
2022-12-24T00:45:06.878Z,0
2022-12-24T00:54:43.934Z,0
2022-12-24T01:04:20.669Z,0
2022-12-24T01:13:58.206Z,0
2022-12-24T01:23:35.225Z,0
2022-12-24T01:33:13.093Z,0
2022-12-24T01:42:50.399Z,0
2022-12-24T01:52:27.888Z,0
2022-12-24T02:02:05.202Z,0
2022-12-24T02:11:42.546Z,0
2022-12-24T02:21:19.572Z,0
2022-12-24T02:30:57.061Z,0
2022-12-24T02:40:34.014Z,0
2022-12-24T02:50:11.939Z,0
2022-12-24T02:59:49.406Z,0
2022-12-24T03:09:26.557Z,0
2022-12-24T03:19:03.446Z,0
2022-12-24T03:28:40.993Z,0
2022-12-24T03:38:17.652Z,0
2022-12-24T03:47:54.905Z,0
2022-12-24T03:57:31.984Z,0
2022-12-24T04:07:09.639Z,0
2022-12-24T04:16:47.487Z,0
2022-12-24T04:26:24.878Z,0
2022-12-24T04:36:02.005Z,0
2022-12-24T04:45:40.292Z,0
2022-12-24T04:55:17.068Z,0
2022-12-24T05:04:54.672Z,0
2022-12-24T05:14:32.201Z,0
2022-12-24T05:24:09.414Z,0
2022-12-24T05:33:47.080Z,0
2022-12-24T05:43:24.449Z,0
2022-12-24T05:53:01.651Z,0
2022-12-24T06:02:38.005Z,0
2022-12-24T06:12:14.665Z,0
2022-12-24T06:21:50.965Z,0
2022-12-24T06:31:27.421Z,0
2022-12-24T06:41:03.928Z,0
2022-12-24T06:50:41.383Z,0
2022-12-24T07:00:19.204Z,0
2022-12-24T07:09:56.746Z,5.63
2022-12-24T07:19:34.524Z,11.25
2022-12-24T07:29:11.986Z,16.88
2022-12-24T07:38:49.437Z,22.5
2022-12-24T07:48:26.764Z,28.13
2022-12-24T07:58:03.812Z,50.63
2022-12-24T08:07:41.276Z,50.63
2022-12-24T08:17:18.776Z,50.63
2022-12-24T08:26:56.481Z,90
2022-12-24T08:36:34.959Z,78.75
2022-12-24T08:46:13.259Z,101.25
2022-12-24T08:55:55.865Z,146.25
2022-12-24T09:05:27.097Z,151.88
2022-12-24T09:15:04.802Z,185.63
2022-12-24T09:24:42.860Z,135
2022-12-24T09:34:22.720Z,84.38
2022-12-24T09:43:57.350Z,106.88
2022-12-24T09:53:35.067Z,191.25
2022-12-24T10:03:13.644Z,247.5
2022-12-24T10:12:51.468Z,320.63
2022-12-24T10:22:28.308Z,196.88
2022-12-24T10:32:05.918Z,236.25
2022-12-24T10:41:43.109Z,213.75
2022-12-24T10:51:20.660Z,213.75
2022-12-24T11:00:58.561Z,208.13
2022-12-24T11:10:36.705Z,376.88
2022-12-24T11:20:15.996Z,421.88
2022-12-24T11:29:52.742Z,213.75
2022-12-24T11:39:29.969Z,264.38
2022-12-24T11:49:08.131Z,236.25
2022-12-24T11:58:42.808Z,213.75
2022-12-24T12:08:21.120Z,236.25
2022-12-24T12:17:59.073Z,326.25
2022-12-24T12:27:36.704Z,286.88
2022-12-24T12:37:14.990Z,320.63
2022-12-24T12:46:49.904Z,202.5
2022-12-24T12:56:26.906Z,157.5
2022-12-24T13:06:03.998Z,123.75
2022-12-24T13:15:41.484Z,174.38
2022-12-24T13:25:20.338Z,230.63
2022-12-24T13:34:58.372Z,185.63
2022-12-24T13:44:30.557Z,135
2022-12-24T13:54:11.530Z,427.5
2022-12-24T14:03:46.309Z,168.75
2022-12-24T14:13:21.607Z,73.13
2022-12-24T14:22:57.251Z,33.75
2022-12-24T14:32:33.659Z,16.88
2022-12-24T14:42:10.748Z,28.13
2022-12-24T14:51:47.128Z,33.75
2022-12-24T15:01:22.634Z,11.25
2022-12-24T15:10:59.184Z,5.63
2022-12-24T15:20:35.805Z,0
2022-12-24T15:30:12.524Z,0
2022-12-24T15:39:48.941Z,0
2022-12-24T15:49:25.702Z,0
2022-12-24T15:59:02.336Z,0
2022-12-24T16:08:38.993Z,0
2022-12-24T16:18:15.719Z,0
2022-12-24T16:27:52.940Z,0
2022-12-24T16:37:30.246Z,0
2022-12-24T16:47:06.887Z,0
2022-12-24T16:56:43.450Z,0
2022-12-24T17:06:19.667Z,0
2022-12-24T17:15:56.708Z,0
2022-12-24T17:25:33.179Z,0
2022-12-24T17:35:09.769Z,0
2022-12-24T17:44:46.233Z,0
2022-12-24T17:54:22.681Z,0
2022-12-24T18:03:58.998Z,0
2022-12-24T18:13:35.478Z,0
2022-12-24T18:23:12.191Z,0
2022-12-24T18:32:48.892Z,0
2022-12-24T18:42:25.734Z,0
2022-12-24T18:52:02.746Z,0
2022-12-24T19:01:39.207Z,0
2022-12-24T19:11:15.974Z,0
2022-12-24T19:20:52.770Z,0
2022-12-24T19:30:29.622Z,0
2022-12-24T19:40:06.252Z,0
2022-12-24T19:49:43.218Z,0
2022-12-24T19:59:19.764Z,0
2022-12-24T20:08:56.604Z,0
2022-12-24T20:18:34.014Z,0
2022-12-24T20:28:09.872Z,0
2022-12-24T20:37:46.587Z,0
2022-12-24T20:47:23.083Z,0
2022-12-24T20:57:00.427Z,0
2022-12-24T21:06:38.075Z,0
2022-12-24T21:16:15.121Z,0
2022-12-24T21:25:51.957Z,0
2022-12-24T21:35:29.011Z,0
2022-12-24T21:45:07.867Z,0
2022-12-24T21:54:43.432Z,0
2022-12-24T22:04:20.962Z,0
2022-12-24T22:13:57.575Z,0
2022-12-24T22:23:38.649Z,0
2022-12-24T22:33:11.933Z,0
2022-12-24T22:42:48.608Z,0
2022-12-24T22:52:25.621Z,0
2022-12-24T23:02:02.652Z,0
2022-12-24T23:11:39.009Z,0
2022-12-24T23:21:15.423Z,0
2022-12-24T23:30:51.562Z,0
2022-12-24T23:40:28.695Z,0
2022-12-24T23:50:05.729Z,0
2022-12-24T23:59:42.611Z,0
